.
WxDataArchive / Data Records for 2008-10-22
2008-10-21 October 2008 2008-10-23

Data Records for Wednesday, 22 October 2008

Time	Temp	Chill	HIndex	Humid	Dewpt	 Wind 	HiWind	WindDir	Rain 	Barom 
-----	----	-----	------	-----	-----	------	------	-------	-----	----- 
00:00	31.6	31.6	31.6	85	27.6	0	0	---	0.00	30.346 
00:05	31.5	31.5	31.5	86	27.8	0	0	---	0.00	30.345 
00:10	31.3	31.3	31.3	86	27.6	0	0	---	0.00	30.346 
00:15	31.2	31.2	31.2	86	27.5	0	0	---	0.00	30.349 
00:20	31.0	31.0	31.0	86	27.3	0	0	---	0.00	30.350 
00:25	30.9	30.9	30.9	87	27.5	0	0	---	0.00	30.351 
00:30	30.7	30.7	30.7	87	27.3	0	0	---	0.00	30.352 
00:35	30.7	30.7	30.7	87	27.3	0	0	---	0.00	30.353 
00:40	30.6	30.6	30.6	87	27.2	0	0	---	0.00	30.352 
00:45	30.6	30.6	30.6	88	27.5	0	0	---	0.00	30.354 
00:50	30.4	30.4	30.4	88	27.3	0	0	---	0.00	30.354 
00:55	30.4	30.4	30.4	88	27.3	0	0	---	0.00	30.356 
01:00	30.3	30.3	30.3	88	27.2	0	0	---	0.00	30.356 
01:05	30.1	30.1	30.1	88	27.0	0	0	---	0.00	30.355 
01:10	30.1	30.1	30.1	88	27.0	0	0	---	0.00	30.356 
01:15	30.0	30.0	30.0	88	26.9	0	0	---	0.00	30.356 
01:20	30.0	30.0	30.0	89	27.2	0	0	---	0.00	30.358 
01:25	29.8	29.8	29.8	89	27.0	0	0	---	0.00	30.356 
01:30	29.8	29.8	29.8	89	27.0	0	0	---	0.00	30.357 
01:35	29.8	29.8	29.8	90	27.2	0	0	---	0.00	30.356 
01:40	29.8	29.8	29.8	90	27.2	0	0	---	0.00	30.359 
01:45	29.8	29.8	29.8	90	27.2	0	0	---	0.00	30.359 
01:50	29.8	29.8	29.8	90	27.2	0	0	---	0.00	30.359 
01:55	29.8	29.8	29.8	90	27.2	0	0	---	0.00	30.357 
02:00	30.0	30.0	30.0	90	27.4	0	0	---	0.00	30.356 
02:05	30.1	30.1	30.1	90	27.5	0	0	---	0.00	30.356 
02:10	30.4	30.4	30.4	90	27.8	0	0	---	0.00	30.356 
02:15	30.7	30.7	30.7	89	27.8	0	0	---	0.00	30.355 
02:20	31.0	31.0	31.0	89	28.1	0	1	292	0.00	30.355 
02:25	31.6	31.6	31.6	88	28.5	0	2	292	0.00	30.356 
02:30	32.5	32.5	32.5	84	28.2	1	4	112	0.00	30.355 
02:35	33.4	33.4	33.4	81	28.2	0	3	112	0.00	30.353 
02:40	33.8	33.8	33.8	79	28.0	1	3	112	0.00	30.352 
02:45	34.4	34.4	34.4	76	27.6	1	3	112	0.00	30.351 
02:50	34.9	34.9	34.9	75	27.8	2	5	90	0.00	30.349 
02:55	35.0	35.0	35.0	74	27.6	1	3	112	0.00	30.350 
03:00	35.2	35.2	35.2	73	27.4	1	5	90	0.00	30.349 
03:05	35.3	35.3	35.3	73	27.5	1	4	90	0.00	30.351 
03:10	35.5	35.5	35.5	73	27.7	2	7	90	0.00	30.351 
03:15	35.5	35.5	35.5	74	28.0	2	4	90	0.00	30.349 
03:20	35.5	35.5	35.5	74	28.0	1	4	112	0.00	30.349 
03:25	35.5	35.5	35.5	75	28.4	2	6	112	0.00	30.350 
03:30	35.5	35.5	35.5	75	28.4	2	5	112	0.00	30.350 
03:35	35.5	35.5	35.5	75	28.4	2	6	112	0.00	30.351 
03:40	35.6	35.6	35.6	75	28.5	2	6	90	0.00	30.352 
03:45	35.6	35.6	35.6	75	28.5	1	5	90	0.00	30.357 
03:50	35.5	35.5	35.5	74	28.0	2	5	90	0.00	30.361 
03:55	35.5	35.5	35.5	74	28.0	1	3	90	0.00	30.362 
04:00	35.3	35.3	35.3	74	27.9	1	5	112	0.00	30.365 
04:05	35.0	35.0	35.0	74	27.6	1	4	90	0.00	30.365 
04:10	34.9	34.9	34.9	75	27.8	1	4	90	0.00	30.369 
04:15	34.7	34.7	34.7	75	27.6	1	4	112	0.00	30.373 
04:20	34.6	34.6	34.6	75	27.5	0	4	112	0.00	30.376 
04:25	34.3	34.3	34.3	75	27.2	0	2	112	0.00	30.381 
04:30	34.1	34.1	34.1	76	27.3	0	2	112	0.00	30.382 
04:35	33.8	33.8	33.8	76	27.1	0	2	112	0.00	30.384 
04:40	33.7	33.7	33.7	77	27.3	0	1	112	0.00	30.385 
04:45	33.5	33.5	33.5	77	27.1	0	0	---	0.00	30.388 
04:50	33.2	33.2	33.2	77	26.8	0	0	---	0.00	30.394 
04:55	33.1	33.1	33.1	77	26.7	0	0	---	0.00	30.398 
05:00	32.8	32.8	32.8	78	26.7	0	1	112	0.00	30.399 
05:05	32.5	32.5	32.5	78	26.4	0	0	---	0.00	30.403 
05:10	32.2	32.2	32.2	79	26.4	0	0	---	0.00	30.406 
05:15	31.9	31.9	31.9	80	26.4	0	0	---	0.00	30.405 
05:20	31.8	31.8	31.8	81	26.6	0	0	---	0.00	30.405 
05:25	31.5	31.5	31.5	81	26.4	0	0	---	0.00	30.407 
05:30	31.3	31.3	31.3	81	26.2	0	0	---	0.00	30.410 
05:35	31.0	31.0	31.0	81	25.9	0	0	---	0.00	30.410 
05:40	30.9	30.9	30.9	82	26.1	0	0	---	0.00	30.412 
05:45	30.7	30.7	30.7	82	25.9	0	0	---	0.00	30.414 
05:50	30.6	30.6	30.6	83	26.1	0	0	---	0.00	30.416 
05:55	30.4	30.4	30.4	83	25.9	0	0	---	0.00	30.418 
06:00	30.3	30.3	30.3	84	26.1	0	0	---	0.00	30.422 
06:05	30.1	30.1	30.1	84	25.9	0	0	---	0.00	30.426 
06:10	30.0	30.0	30.0	84	25.8	0	0	---	0.00	30.427 
06:15	29.8	29.8	29.8	84	25.6	0	0	---	0.00	30.430 
06:20	29.5	29.5	29.5	84	25.3	0	0	---	0.00	30.430 
06:25	29.4	29.4	29.4	85	25.5	0	0	---	0.00	30.433 
06:30	29.3	29.3	29.3	85	25.4	0	0	---	0.00	30.436 
06:35	29.0	29.0	29.0	85	25.1	0	0	---	0.00	30.437 
06:40	28.8	28.8	28.8	86	25.2	0	0	---	0.00	30.440 
06:45	28.7	28.7	28.7	86	25.1	0	0	---	0.00	30.442 
06:50	28.5	28.5	28.5	87	25.1	0	0	---	0.00	30.443 
06:55	28.4	28.4	28.4	87	25.0	0	0	---	0.00	30.443 
07:00	28.2	28.2	28.2	87	24.8	0	0	---	0.00	30.443 
07:05	28.2	28.2	28.2	87	24.8	0	0	---	0.00	30.447 
07:10	28.1	28.1	28.1	88	25.0	0	0	---	0.00	30.447 
07:15	28.1	28.1	28.1	88	25.0	0	0	---	0.00	30.447 
07:20	28.1	28.1	28.1	88	25.0	0	0	---	0.00	30.449 
07:25	28.2	28.2	28.2	89	25.4	0	0	---	0.00	30.449 
07:30	28.4	28.4	28.4	89	25.6	0	0	---	0.00	30.449 
07:35	28.4	28.4	28.4	89	25.6	0	0	---	0.00	30.449 
07:40	28.5	28.5	28.5	89	25.7	0	0	---	0.00	30.449 
07:45	28.8	28.8	28.8	90	26.2	0	0	---	0.00	30.450 
07:50	29.1	29.1	29.1	90	26.5	0	0	---	0.00	30.452 
07:55	29.5	29.5	29.5	91	27.2	0	0	---	0.00	30.455 
08:00	30.0	30.0	30.0	91	27.7	0	0	---	0.00	30.453 
08:05	30.3	30.3	30.3	91	28.0	0	0	---	0.00	30.458 
08:10	30.7	30.7	30.7	91	28.4	0	0	---	0.00	30.462 
08:15	31.3	31.3	31.3	91	29.0	0	1	112	0.00	30.467 
08:20	32.1	32.1	32.1	90	29.5	0	1	112	0.00	30.472 
08:25	32.9	32.9	32.9	88	29.7	0	2	112	0.00	30.474 
08:30	34.1	34.1	34.1	84	29.8	1	2	112	0.00	30.472 
08:35	35.5	35.5	35.5	80	30.0	1	4	112	0.00	30.473 
08:40	36.8	36.8	36.8	76	30.0	1	5	112	0.00	30.472 
08:45	37.5	37.5	37.5	73	29.6	1	5	90	0.00	30.472 
08:50	38.0	38.0	38.0	73	30.1	1	5	68	0.00	30.471 
08:55	38.5	38.5	38.5	71	29.9	1	6	112	0.00	30.472 
09:00	38.9	38.9	38.9	71	30.3	1	7	90	0.00	30.475 
09:05	39.2	39.2	39.2	69	29.9	2	6	90	0.00	30.478 
09:10	39.2	39.2	39.2	69	29.9	2	5	112	0.00	30.479 
09:15	39.5	39.5	39.5	69	30.2	3	5	90	0.00	30.480 
09:20	40.1	40.1	40.1	70	31.1	1	6	68	0.00	30.481 
09:25	40.8	40.8	40.8	68	31.1	1	5	68	0.00	30.480 
09:30	41.5	41.5	41.5	67	31.4	2	4	90	0.00	30.484 
09:35	42.1	42.1	42.1	67	31.9	1	5	90	0.00	30.482 
09:40	42.5	42.5	42.5	66	32.0	2	4	90	0.00	30.482 
09:45	42.8	42.8	42.8	65	31.9	2	7	112	0.00	30.483 
09:50	42.9	42.9	42.9	65	32.0	2	4	90	0.00	30.482 
09:55	43.5	43.5	43.5	63	31.8	1	6	90	0.00	30.482 
10:00	43.9	43.9	43.9	64	32.5	2	5	112	0.00	30.481 
10:05	44.2	44.2	44.2	62	32.0	2	6	90	0.00	30.483 
10:10	44.3	44.3	44.3	64	32.9	2	4	90	0.00	30.482 
10:15	44.6	44.6	44.6	64	33.2	1	4	90	0.00	30.480 
10:20	44.9	44.9	44.9	63	33.1	2	5	90	0.00	30.479 
10:25	45.2	45.2	45.2	64	33.8	1	4	90	0.00	30.479 
10:30	45.5	45.5	45.5	63	33.6	1	5	90	0.00	30.478 
10:35	46.0	46.0	46.0	61	33.3	2	5	112	0.00	30.478 
10:40	46.2	46.2	46.2	58	32.2	2	6	112	0.00	30.476 
10:45	46.2	46.2	46.2	57	31.8	2	6	90	0.00	30.481 
10:50	46.5	46.5	46.5	60	33.4	1	4	112	0.00	30.480 
10:55	46.4	46.4	46.4	57	32.0	3	6	90	0.00	30.477 
11:00	46.5	46.5	46.5	57	32.1	2	6	112	0.00	30.474 
11:05	46.7	46.7	46.7	57	32.3	2	5	90	0.00	30.475 
11:10	47.1	47.1	47.1	58	33.1	2	7	112	0.00	30.477 
11:15	47.4	47.4	47.4	55	32.1	2	12	112	0.00	30.479 
11:20	47.7	47.7	47.7	55	32.3	2	6	90	0.00	30.474 
11:25	47.4	47.4	47.4	55	32.1	3	6	90	0.00	30.473 
11:30	47.6	47.6	47.6	56	32.7	2	6	68	0.00	30.471 
11:35	47.9	47.9	47.9	56	33.0	2	7	90	0.00	30.470 
11:40	48.2	48.2	48.2	55	32.8	2	5	90	0.00	30.468 
11:45	48.5	48.5	48.5	55	33.1	2	5	90	0.00	30.465 
11:50	48.6	48.6	48.6	54	32.7	3	7	90	0.00	30.464 
11:55	48.2	46.8	48.2	53	31.9	4	10	90	0.00	30.459 
12:00	48.3	48.3	48.3	54	32.4	2	6	90	0.00	30.451 
12:05	48.3	48.3	48.3	55	32.9	3	9	90	0.00	30.451 
12:10	48.8	48.8	48.8	56	33.8	2	5	90	0.00	30.448 
12:15	48.9	48.9	48.9	53	32.5	3	9	90	0.00	30.443 
12:20	49.1	49.1	49.1	53	32.7	3	7	90	0.00	30.440 
12:25	49.2	49.2	49.2	50	31.4	2	5	90	0.00	30.435 
12:30	49.4	49.4	49.4	51	32.0	2	5	90	0.00	30.434 
12:35	49.4	49.4	49.4	52	32.5	3	7	90	0.00	30.432 
12:40	49.5	49.5	49.5	50	31.6	2	5	90	0.00	30.431 
12:45	49.5	49.5	49.5	51	32.1	3	10	90	0.00	30.422 
12:50	49.6	49.6	49.6	50	31.7	3	7	90	0.00	30.420 
12:55	49.8	49.8	49.8	50	31.9	3	9	90	0.00	30.418 
13:00	49.9	49.9	49.9	49	31.5	3	10	90	0.00	30.420 
13:05	50.1	50.1	50.1	49	31.7	3	9	112	0.00	30.419 
13:10	49.9	48.8	49.9	52	33.0	4	9	90	0.00	30.417 
13:15	49.9	49.9	49.9	48	31.0	3	6	112	0.00	30.412 
13:20	50.2	50.2	50.2	49	31.8	2	6	90	0.00	30.411 
13:25	50.4	50.4	50.4	49	32.0	2	5	112	0.00	30.410 
13:30	50.4	50.4	50.4	48	31.5	3	7	112	0.00	30.410 
13:35	50.2	50.2	50.2	50	32.3	2	5	135	0.00	30.406 
13:40	50.2	50.2	50.2	50	32.3	3	9	90	0.00	30.407 
13:45	50.4	50.4	50.4	50	32.5	2	6	112	0.00	30.403 
13:50	50.5	50.5	50.5	50	32.6	3	7	112	0.00	30.402 
13:55	50.5	50.5	50.5	50	32.6	2	5	90	0.00	30.402 
14:00	50.8	50.8	50.8	48	31.8	3	9	90	0.00	30.402 
14:05	50.8	50.8	50.8	48	31.8	2	5	90	0.00	30.395 
14:10	50.7	50.7	50.7	49	32.2	4	9	90	0.00	30.393 
14:15	50.7	50.7	50.7	48	31.7	3	8	90	0.00	30.392 
14:20	50.7	50.7	50.7	48	31.7	3	7	90	0.00	30.388 
14:25	51.0	51.0	51.0	48	32.0	2	5	112	0.00	30.387 
14:30	51.1	51.1	51.1	48	32.1	3	6	112	0.00	30.385 
14:35	51.1	51.1	51.1	45	30.5	4	12	112	0.00	30.384 
14:40	51.3	51.3	51.3	47	31.8	2	5	90	0.00	30.382 
14:45	51.6	51.6	51.6	46	31.5	2	9	90	0.00	30.384 
14:50	51.6	51.6	51.6	46	31.5	2	6	112	0.00	30.384 
14:55	51.7	51.7	51.7	47	32.1	2	6	90	0.00	30.382 
15:00	51.7	51.7	51.7	46	31.6	3	6	90	0.00	30.384 
15:05	51.9	51.9	51.9	47	32.3	2	5	90	0.00	30.382 
15:10	51.7	51.7	51.7	44	30.5	3	8	90	0.00	30.382 
15:15	51.6	51.6	51.6	44	30.4	3	10	112	0.00	30.383 
15:20	51.3	51.3	51.3	46	31.2	4	8	90	0.00	30.382 
15:25	51.3	51.3	51.3	47	31.8	3	6	90	0.00	30.382 
15:30	51.3	51.3	51.3	46	31.2	3	9	90	0.00	30.382 
15:35	51.3	51.3	51.3	45	30.7	3	7	90	0.00	30.381 
15:40	51.3	51.3	51.3	46	31.2	2	9	90	0.00	30.383 
15:45	51.3	51.3	51.3	46	31.2	2	6	90	0.00	30.382 
15:50	51.4	51.4	51.4	46	31.3	2	5	90	0.00	30.382 
15:55	51.6	51.6	51.6	44	30.4	2	7	90	0.00	30.381 
16:00	51.4	51.4	51.4	44	30.2	4	10	90	0.00	30.382 
16:05	51.4	51.4	51.4	45	30.8	2	6	90	0.00	30.383 
16:10	51.4	51.4	51.4	43	29.7	2	6	90	0.00	30.384 
16:15	51.3	51.3	51.3	42	29.0	3	10	90	0.00	30.385 
16:20	51.1	51.1	51.1	41	28.2	2	6	90	0.00	30.385 
16:25	51.0	51.0	51.0	43	29.3	3	7	90	0.00	30.385 
16:30	50.8	50.8	50.8	43	29.1	3	7	90	0.00	30.383 
16:35	50.8	50.8	50.8	44	29.7	3	9	90	0.00	30.384 
16:40	50.7	50.7	50.7	43	29.0	3	12	90	0.00	30.384 
16:45	50.5	50.5	50.5	43	28.8	3	7	90	0.00	30.386 
16:50	50.4	50.4	50.4	42	28.2	3	7	90	0.00	30.390 
16:55	50.2	50.2	50.2	42	28.0	4	9	90	0.00	30.391 
17:00	50.1	50.1	50.1	42	27.9	3	8	112	0.00	30.393 
17:05	49.8	49.8	49.8	43	28.2	2	6	112	0.00	30.397 
17:10	49.5	49.5	49.5	41	26.8	2	5	112	0.00	30.396 
17:15	49.4	49.4	49.4	40	26.1	3	10	90	0.00	30.399 
17:20	49.1	49.1	49.1	41	26.4	2	5	90	0.00	30.400 
17:25	48.8	48.8	48.8	41	26.2	2	6	90	0.00	30.400 
17:30	48.5	48.5	48.5	43	27.0	1	4	68	0.00	30.397 
17:35	48.2	48.2	48.2	43	26.8	2	5	90	0.00	30.394 
17:40	47.7	47.7	47.7	43	26.3	2	4	112	0.00	30.396 
17:45	47.4	47.4	47.4	45	27.1	1	4	90	0.00	30.396 
17:50	47.0	47.0	47.0	45	26.8	2	5	90	0.00	30.401 
17:55	46.7	46.7	46.7	44	26.0	2	4	90	0.00	30.404 
18:00	46.4	46.4	46.4	45	26.2	1	3	90	0.00	30.405 
18:05	46.0	46.0	46.0	45	25.9	1	3	90	0.00	30.407 
18:10	45.7	45.7	45.7	45	25.6	2	5	112	0.00	30.406 
18:15	45.4	45.4	45.4	45	25.3	2	6	112	0.00	30.409 
18:20	45.1	45.1	45.1	44	24.5	2	5	90	0.00	30.411 
18:25	44.8	44.8	44.8	44	24.2	2	5	90	0.00	30.412 
18:30	44.5	44.5	44.5	44	24.0	2	5	90	0.00	30.411 
18:35	44.2	44.2	44.2	45	24.2	1	3	90	0.00	30.414 
18:40	43.9	43.9	43.9	46	24.5	1	5	90	0.00	30.418 
18:45	43.6	43.6	43.6	46	24.2	2	4	90	0.00	30.418 
18:50	43.5	43.5	43.5	46	24.1	2	4	90	0.00	30.420 
18:55	43.2	43.2	43.2	48	24.9	1	4	90	0.00	30.424 
19:00	42.9	42.9	42.9	49	25.1	1	2	112	0.00	30.425 
19:05	42.5	42.5	42.5	50	25.2	1	4	112	0.00	30.422 
19:10	42.2	42.2	42.2	51	25.4	1	3	90	0.00	30.423 
19:15	41.8	41.8	41.8	52	25.5	1	4	90	0.00	30.424 
19:20	41.6	41.6	41.6	52	25.3	1	3	112	0.00	30.424 
19:25	41.3	41.3	41.3	53	25.5	0	2	112	0.00	30.424 
19:30	41.3	41.3	41.3	53	25.5	1	4	112	0.00	30.426 
19:35	41.2	41.2	41.2	54	25.8	1	3	112	0.00	30.427 
19:40	41.1	41.1	41.1	54	25.7	1	4	112	0.00	30.429 
19:45	41.1	41.1	41.1	55	26.2	1	3	112	0.00	30.432 
19:50	40.9	40.9	40.9	56	26.4	1	4	112	0.00	30.430 
19:55	40.8	40.8	40.8	56	26.3	1	4	90	0.00	30.433 
20:00	40.6	40.6	40.6	56	26.1	1	3	112	0.00	30.432 
20:05	40.5	40.5	40.5	56	26.1	1	4	90	0.00	30.425 
20:10	40.3	40.3	40.3	56	25.9	2	6	90	0.00	30.425 
20:15	40.2	40.2	40.2	57	26.2	1	3	90	0.00	30.425 
20:20	39.9	39.9	39.9	57	25.9	1	4	90	0.00	30.426 
20:25	39.8	39.8	39.8	57	25.8	1	4	112	0.00	30.425 
20:30	39.6	39.6	39.6	57	25.6	1	4	90	0.00	30.421 
20:35	39.5	39.5	39.5	58	26.0	2	5	90	0.00	30.420 
20:40	39.3	39.3	39.3	58	25.8	2	5	90	0.00	30.419 
20:45	39.3	39.3	39.3	57	25.4	2	8	90	0.00	30.418 
20:50	39.2	39.2	39.2	58	25.7	1	7	90	0.00	30.419 
20:55	39.2	39.2	39.2	58	25.7	2	7	90	0.00	30.418 
21:00	39.1	39.1	39.1	58	25.6	2	3	90	0.00	30.419 
21:05	38.9	38.9	38.9	58	25.4	2	5	90	0.00	30.416 
21:10	38.8	38.8	38.8	59	25.7	2	5	90	0.00	30.416 
21:15	38.6	38.6	38.6	60	25.9	1	3	112	0.00	30.418 
21:20	38.5	38.5	38.5	60	25.8	2	6	68	0.00	30.420 
21:25	38.3	38.3	38.3	61	26.0	2	4	68	0.00	30.420 
21:30	38.2	38.2	38.2	61	26.0	2	5	90	0.00	30.419 
21:35	38.2	38.2	38.2	62	26.3	2	10	90	0.00	30.418 
21:40	38.2	38.2	38.2	62	26.3	3	8	90	0.00	30.417 
21:45	38.2	38.2	38.2	63	26.7	3	9	90	0.00	30.417 
21:50	38.0	38.0	38.0	65	27.3	2	5	90	0.00	30.417 
21:55	37.8	37.8	37.8	66	27.5	2	7	90	0.00	30.419 
22:00	37.8	37.8	37.8	68	28.2	1	5	90	0.00	30.419 
22:05	37.6	37.6	37.6	69	28.4	1	3	68	0.00	30.418 
22:10	37.6	37.6	37.6	70	28.7	2	6	90	0.00	30.416 
22:15	37.6	37.6	37.6	71	29.1	2	11	90	0.00	30.417 
22:20	37.5	37.5	37.5	72	29.3	1	4	68	0.00	30.415 
22:25	37.3	37.3	37.3	73	29.5	1	4	90	0.00	30.416 
22:30	37.2	37.2	37.2	74	29.7	1	4	90	0.00	30.416 
22:35	37.0	37.0	37.0	74	29.5	1	4	90	0.00	30.415 
22:40	36.9	36.9	36.9	75	29.7	1	3	68	0.00	30.415 
22:45	36.8	36.8	36.8	76	30.0	1	4	90	0.00	30.414 
22:50	36.8	36.8	36.8	77	30.3	2	5	90	0.00	30.413 
22:55	36.8	36.8	36.8	77	30.3	1	4	90	0.00	30.412 
23:00	36.8	36.8	36.8	78	30.6	1	3	90	0.00	30.411 
23:05	36.8	36.8	36.8	78	30.6	1	2	90	0.00	30.412 
23:10	36.8	36.8	36.8	79	30.9	1	3	90	0.00	30.412 
23:15	36.8	36.8	36.8	79	30.9	1	3	90	0.00	30.413 
23:20	36.9	36.9	36.9	80	31.3	1	5	90	0.00	30.413 
23:25	36.9	36.9	36.9	80	31.3	1	3	90	0.00	30.411 
23:30	36.9	36.9	36.9	80	31.3	1	3	90	0.00	30.409 
23:35	36.8	36.8	36.8	81	31.5	1	5	90	0.00	30.409 
23:40	36.8	36.8	36.8	81	31.5	1	2	90	0.00	30.407 
23:45	36.8	36.8	36.8	81	31.5	1	3	68	0.00	30.406 
23:50	36.6	36.6	36.6	81	31.3	1	4	68	0.00	30.405 
23:55	36.5	36.5	36.5	82	31.5	1	3	90	0.00	30.403 

CoCoRaHS
IN-AL-39
A2 Web Hosting
Creative Commons License
GoDaddy
Look for:

loaded 2017-10-19 14:17:46 • last modified 2010-11-18 10:43:29
Privacy PolicyDisclaimer
• wx.awcolley.com is powered by PmWiki v.2002016 •
• all content (unless otherwise noted) © 2017 A W Colley